Time,TemperatureF,DewpointF,PressureIn,WindDirection,WindDirectionDegrees,WindSpeedMPH,WindSpeedGustMPH,Humidity,HourlyPrecipIn,Conditions,Clouds,dailyrainin,SoftwareType,DateUTC
2013-04-06 00:01:00,59.3,40.0,29.67,South,180,15.0,23.0,49,0.00,,,0.00,weatherlink.com 1.10,2013-04-06 05:01:00,
2013-04-06 00:16:00,58.9,40.0,29.67,South,173,8.0,24.0,50,0.00,,,0.00,weatherlink.com 1.10,2013-04-06 05:16:00,
2013-04-06 00:31:00,58.5,40.0,29.67,South,176,7.0,21.0,51,0.00,,,0.00,weatherlink.com 1.10,2013-04-06 05:31:00,
2013-04-06 00:46:00,58.4,40.0,29.67,SSE,168,12.0,21.0,51,0.00,,,0.00,weatherlink.com 1.10,2013-04-06 05:46:00,
2013-04-06 01:01:00,58.2,40.0,29.66,South,177,13.0,21.0,52,0.00,,,0.00,weatherlink.com 1.10,2013-04-06 06:01:00,
2013-04-06 01:16:00,58.0,40.0,29.66,SSE,151,4.0,20.0,52,0.00,,,0.00,weatherlink.com 1.10,2013-04-06 06:16:00,
2013-04-06 01:31:00,57.8,41.0,29.66,South,186,8.0,20.0,53,0.00,,,0.00,weatherlink.com 1.10,2013-04-06 06:31:00,
2013-04-06 01:47:00,57.7,40.0,29.65,South,187,18.0,22.0,53,0.00,,,0.00,weatherlink.com 1.10,2013-04-06 06:47:00,
2013-04-06 02:02:00,57.6,41.0,29.65,South,184,10.0,19.0,54,0.00,,,0.00,weatherlink.com 1.10,2013-04-06 07:02:00,
2013-04-06 02:17:00,57.5,41.0,29.65,SSW,193,15.0,23.0,54,0.00,,,0.00,weatherlink.com 1.10,2013-04-06 07:17:00,
2013-04-06 02:32:00,57.4,41.0,29.64,SSE,163,6.0,18.0,54,0.00,,,0.00,weatherlink.com 1.10,2013-04-06 07:32:00,
2013-04-06 02:47:00,57.6,41.0,29.63,South,190,11.0,21.0,54,0.00,,,0.00,weatherlink.com 1.10,2013-04-06 07:47:00,
2013-04-06 03:02:00,57.4,41.0,29.63,SSE,162,8.0,22.0,54,0.00,,,0.00,weatherlink.com 1.10,2013-04-06 08:02:00,
2013-04-06 03:17:00,57.2,41.0,29.63,South,184,11.0,19.0,55,0.00,,,0.00,weatherlink.com 1.10,2013-04-06 08:17:00,
2013-04-06 03:32:00,56.8,41.0,29.62,South,170,3.0,17.0,56,0.00,,,0.00,weatherlink.com 1.10,2013-04-06 08:32:00,
2013-04-06 03:47:00,56.5,41.0,29.62,SSE,159,10.0,17.0,57,0.00,,,0.00,weatherlink.com 1.10,2013-04-06 08:47:00,
2013-04-06 04:02:00,56.3,41.0,29.62,SSW,207,10.0,18.0,58,0.00,,,0.00,weatherlink.com 1.10,2013-04-06 09:02:00,
2013-04-06 04:17:00,55.9,42.0,29.61,South,179,13.0,15.0,59,0.00,,,0.00,weatherlink.com 1.10,2013-04-06 09:17:00,
2013-04-06 04:32:00,55.5,42.0,29.60,SSE,153,12.0,17.0,60,0.00,,,0.00,weatherlink.com 1.10,2013-04-06 09:32:00,
2013-04-06 04:47:00,55.1,42.0,29.59,South,171,15.0,18.0,61,0.00,,,0.00,weatherlink.com 1.10,2013-04-06 09:47:00,
2013-04-06 05:02:00,54.9,42.0,29.59,SSE,162,4.0,18.0,62,0.00,,,0.00,weatherlink.com 1.10,2013-04-06 10:02:00,
2013-04-06 05:17:00,54.6,42.0,29.58,South,184,6.0,20.0,63,0.00,,,0.00,weatherlink.com 1.10,2013-04-06 10:17:00,
2013-04-06 05:32:00,54.0,42.0,29.58,South,172,11.0,16.0,64,0.00,,,0.00,weatherlink.com 1.10,2013-04-06 10:32:00,
2013-04-06 05:50:00,53.7,42.0,29.58,South,187,6.0,19.0,65,0.00,,,0.00,weatherlink.com 1.10,2013-04-06 10:50:00,
2013-04-06 06:02:00,53.6,42.0,29.58,South,174,6.0,18.0,66,0.00,,,0.00,weatherlink.com 1.10,2013-04-06 11:02:00,
2013-04-06 06:17:00,53.3,43.0,29.57,South,174,10.0,19.0,67,0.00,,,0.00,weatherlink.com 1.10,2013-04-06 11:17:00,
2013-04-06 06:47:00,53.0,43.0,29.56,SSE,167,9.0,14.0,68,0.00,,,0.00,weatherlink.com 1.10,2013-04-06 11:47:00,
2013-04-06 07:02:00,52.8,43.0,29.56,SSW,209,6.0,15.0,69,0.00,,,0.00,weatherlink.com 1.10,2013-04-06 12:02:00,
2013-04-06 07:17:00,52.9,43.0,29.56,SSW,201,7.0,19.0,69,0.00,,,0.00,weatherlink.com 1.10,2013-04-06 12:17:00,
2013-04-06 07:32:00,52.9,43.0,29.56,South,181,8.0,19.0,69,0.00,,,0.00,weatherlink.com 1.10,2013-04-06 12:32:00,
2013-04-06 07:47:00,52.8,43.0,29.57,SSW,202,7.0,23.0,70,0.00,,,0.00,weatherlink.com 1.10,2013-04-06 12:47:00,
2013-04-06 08:02:00,52.6,43.0,29.56,SSW,195,12.0,16.0,71,0.00,,,0.00,weatherlink.com 1.10,2013-04-06 13:02:00,
2013-04-06 08:18:00,52.4,43.0,29.56,SSW,196,9.0,15.0,71,0.00,,,0.00,weatherlink.com 1.10,2013-04-06 13:18:00,
2013-04-06 08:33:00,52.5,44.0,29.56,SW,223,12.0,15.0,72,0.00,,,0.00,weatherlink.com 1.10,2013-04-06 13:33:00,
2013-04-06 08:48:00,53.0,44.0,29.56,South,178,6.0,15.0,72,0.00,,,0.00,weatherlink.com 1.10,2013-04-06 13:48:00,
2013-04-06 09:03:00,53.5,45.0,29.55,SSW,199,2.0,19.0,72,0.00,,,0.00,weatherlink.com 1.10,2013-04-06 14:03:00,
2013-04-06 09:18:00,54.1,45.0,29.55,SW,218,10.0,20.0,71,0.00,,,0.00,weatherlink.com 1.10,2013-04-06 14:18:00,
2013-04-06 09:33:00,55.5,46.0,29.55,SW,234,8.0,14.0,70,0.00,,,0.00,weatherlink.com 1.10,2013-04-06 14:33:00,
2013-04-06 09:48:00,55.0,45.0,29.56,WSW,252,10.0,20.0,70,0.00,,,0.00,weatherlink.com 1.10,2013-04-06 14:48:00,
2013-04-06 10:03:00,54.9,45.0,29.56,WSW,240,7.0,19.0,70,0.00,,,0.00,weatherlink.com 1.10,2013-04-06 15:03:00,
2013-04-06 10:18:00,54.7,45.0,29.56,West,264,10.0,19.0,69,0.00,,,0.00,weatherlink.com 1.10,2013-04-06 15:18:00,
2013-04-06 10:33:00,53.3,42.0,29.56,WNW,300,8.0,18.0,65,0.00,,,0.00,weatherlink.com 1.10,2013-04-06 15:33:00,
2013-04-06 10:48:00,52.4,40.0,29.57,West,277,11.0,22.0,63,0.00,,,0.00,weatherlink.com 1.10,2013-04-06 15:48:00,
2013-04-06 11:03:00,52.1,39.0,29.58,West,280,5.0,24.0,61,0.00,,,0.00,weatherlink.com 1.10,2013-04-06 16:03:00,
2013-04-06 11:18:00,52.3,39.0,29.57,West,261,15.0,19.0,60,0.00,,,0.00,weatherlink.com 1.10,2013-04-06 16:18:00,
2013-04-06 11:33:00,51.0,38.0,29.57,WNW,302,4.0,15.0,62,0.00,,,0.00,weatherlink.com 1.10,2013-04-06 16:33:00,
2013-04-06 11:48:00,50.5,40.0,29.59,WNW,285,13.0,16.0,67,0.00,,,0.00,weatherlink.com 1.10,2013-04-06 16:48:00,
2013-04-06 12:03:00,49.4,40.0,29.61,West,272,12.0,18.0,70,0.00,,,0.00,weatherlink.com 1.10,2013-04-06 17:03:00,
2013-04-06 12:18:00,47.8,41.0,29.60,West,275,8.0,23.0,76,0.01,,,0.01,weatherlink.com 1.10,2013-04-06 17:18:00,
2013-04-06 13:03:00,54.7,43.0,29.60,West,279,13.0,19.0,65,0.01,,,0.01,weatherlink.com 1.10,2013-04-06 18:03:00,
2013-04-06 13:18:00,55.8,42.0,29.61,West,269,10.0,18.0,61,0.00,,,0.01,weatherlink.com 1.10,2013-04-06 18:18:00,
2013-04-06 13:33:00,57.6,43.0,29.60,West,270,20.0,23.0,58,0.00,,,0.01,weatherlink.com 1.10,2013-04-06 18:33:00,
2013-04-06 13:51:00,60.6,43.0,29.59,WNW,300,5.0,21.0,52,0.00,,,0.01,weatherlink.com 1.10,2013-04-06 18:51:00,
2013-04-06 14:03:00,62.6,43.0,29.59,WNW,292,13.0,25.0,49,0.00,,,0.01,weatherlink.com 1.10,2013-04-06 19:03:00,
2013-04-06 14:18:00,63.1,43.0,29.59,WNW,297,12.0,20.0,49,0.00,,,0.01,weatherlink.com 1.10,2013-04-06 19:18:00,
2013-04-06 14:33:00,63.8,43.0,29.58,NW,313,17.0,22.0,47,0.00,,,0.01,weatherlink.com 1.10,2013-04-06 19:33:00,
2013-04-06 14:48:00,64.5,43.0,29.58,WNW,293,16.0,28.0,46,0.00,,,0.01,weatherlink.com 1.10,2013-04-06 19:48:00,
2013-04-06 15:03:00,64.5,43.0,29.59,NW,304,11.0,25.0,45,0.00,,,0.01,weatherlink.com 1.10,2013-04-06 20:03:00,
2013-04-06 15:34:00,66.2,42.0,29.58,WNW,290,14.0,26.0,41,0.00,,,0.01,weatherlink.com 1.10,2013-04-06 20:34:00,
2013-04-06 15:49:00,66.4,40.0,29.58,WNW,294,23.0,25.0,38,0.00,,,0.01,weatherlink.com 1.10,2013-04-06 20:49:00,
2013-04-06 16:04:00,67.2,40.0,29.59,WNW,296,6.0,25.0,37,0.00,,,0.01,weatherlink.com 1.10,2013-04-06 21:04:00,
2013-04-06 16:34:00,66.6,41.0,29.61,WNW,293,14.0,26.0,39,0.00,,,0.01,weatherlink.com 1.10,2013-04-06 21:34:00,
2013-04-06 16:49:00,67.4,41.0,29.61,WNW,300,16.0,22.0,38,0.00,,,0.01,weatherlink.com 1.10,2013-04-06 21:49:00,
2013-04-06 17:04:00,67.2,41.0,29.62,WNW,300,11.0,25.0,38,0.00,,,0.01,weatherlink.com 1.10,2013-04-06 22:04:00,
2013-04-06 17:18:00,67.4,41.0,29.63,WNW,300,9.0,27.0,38,0.00,,,0.01,weatherlink.com 1.10,2013-04-06 22:18:00,
2013-04-06 17:34:00,67.6,40.0,29.63,NW,314,14.0,29.0,37,0.00,,,0.01,weatherlink.com 1.10,2013-04-06 22:34:00,
2013-04-06 17:49:00,67.6,40.0,29.64,WNW,290,14.0,25.0,37,0.00,,,0.01,weatherlink.com 1.10,2013-04-06 22:49:00,
2013-04-06 18:19:00,68.1,41.0,29.64,NW,313,6.0,16.0,37,0.00,,,0.01,weatherlink.com 1.10,2013-04-06 23:19:00,
2013-04-06 18:34:00,68.3,40.0,29.64,WNW,296,9.0,14.0,36,0.00,,,0.01,weatherlink.com 1.10,2013-04-06 23:34:00,
2013-04-06 18:49:00,67.8,39.0,29.65,WNW,289,8.0,16.0,35,0.00,,,0.01,weatherlink.com 1.10,2013-04-06 23:49:00,
2013-04-06 19:04:00,66.4,39.0,29.66,WNW,299,7.0,14.0,36,0.00,,,0.01,weatherlink.com 1.10,2013-04-07 00:04:00,
2013-04-06 19:19:00,65.7,39.0,29.66,WNW,290,4.0,9.0,37,0.00,,,0.01,weatherlink.com 1.10,2013-04-07 00:19:00,
2013-04-06 19:34:00,65.4,38.0,29.67,WNW,298,5.0,7.0,37,0.00,,,0.01,weatherlink.com 1.10,2013-04-07 00:34:00,
2013-04-06 20:04:00,63.0,42.0,29.68,WNW,288,5.0,11.0,46,0.00,,,0.01,weatherlink.com 1.10,2013-04-07 01:04:00,
2013-04-06 20:19:00,61.9,42.0,29.68,WNW,298,5.0,9.0,49,0.00,,,0.01,weatherlink.com 1.10,2013-04-07 01:19:00,
2013-04-06 20:34:00,61.1,43.0,29.68,WNW,294,1.0,3.0,51,0.00,,,0.01,weatherlink.com 1.10,2013-04-07 01:34:00,
2013-04-06 20:49:00,60.8,43.0,29.69,WNW,293,0.0,3.0,52,0.00,,,0.01,weatherlink.com 1.10,2013-04-07 01:49:00,
2013-04-06 21:04:00,59.9,43.0,29.69,WNW,291,3.0,3.0,54,0.00,,,0.01,weatherlink.com 1.10,2013-04-07 02:04:00,
2013-04-06 21:19:00,59.4,43.0,29.70,WSW,239,0.0,4.0,56,0.00,,,0.01,weatherlink.com 1.10,2013-04-07 02:19:00,
2013-04-06 21:49:00,58.2,43.0,29.71,WSW,239,0.0,0.0,58,0.00,,,0.01,weatherlink.com 1.10,2013-04-07 02:49:00,
2013-04-06 22:04:00,57.9,44.0,29.71,WSW,239,0.0,0.0,60,0.00,,,0.01,weatherlink.com 1.10,2013-04-07 03:04:00,
2013-04-06 22:19:00,57.1,44.0,29.72,WSW,239,3.0,4.0,61,0.00,,,0.01,weatherlink.com 1.10,2013-04-07 03:19:00,
2013-04-06 22:34:00,56.8,44.0,29.72,SW,232,0.0,3.0,62,0.00,,,0.01,weatherlink.com 1.10,2013-04-07 03:34:00,
2013-04-06 22:49:00,56.8,44.0,29.72,SW,226,1.0,5.0,62,0.00,,,0.01,weatherlink.com 1.10,2013-04-07 03:49:00,
2013-04-06 23:04:00,56.9,44.0,29.72,SW,226,1.0,4.0,62,0.00,,,0.01,weatherlink.com 1.10,2013-04-07 04:04:00,
2013-04-06 23:19:00,56.6,44.0,29.73,SW,226,0.0,0.0,62,0.00,,,0.01,weatherlink.com 1.10,2013-04-07 04:19:00,
2013-04-06 23:34:00,56.7,44.0,29.73,SW,226,0.0,0.0,62,0.00,,,0.01,weatherlink.com 1.10,2013-04-07 04:34:00,
2013-04-06 23:49:00,56.8,44.0,29.73,SW,226,0.0,0.0,62,0.00,,,0.01,weatherlink.com 1.10,2013-04-07 04:49:00,